createdAt,value
2023-01-30T00:02:07.339Z,34.03
2023-01-30T00:04:35.876Z,33.58
2023-01-30T00:07:07.920Z,29.88
2023-01-30T00:09:36.318Z,27.42
2023-01-30T00:12:05.231Z,35.95
2023-01-30T00:14:33.583Z,27.85
2023-01-30T00:17:01.936Z,30.85
2023-01-30T00:19:30.285Z,29.63
2023-01-30T00:21:58.734Z,30.00
2023-01-30T00:24:28.615Z,30.30
2023-01-30T00:26:57.165Z,28.13
2023-01-30T00:29:25.806Z,31.25
2023-01-30T00:31:56.164Z,33.92
2023-01-30T00:34:25.909Z,31.17
2023-01-30T00:39:44.111Z,28.05
2023-01-30T00:42:29.813Z,31.98
2023-01-30T00:45:16.113Z,32.38
2023-01-30T00:47:46.201Z,30.17
2023-01-30T00:50:14.585Z,29.42
2023-01-30T00:52:45.037Z,31.65
2023-01-30T00:55:16.423Z,28.30
2023-01-30T00:57:46.179Z,31.63
2023-01-30T01:00:17.753Z,31.63
2023-01-30T01:02:46.125Z,30.85
2023-01-30T01:05:14.630Z,29.42
2023-01-30T01:07:43.095Z,29.60
2023-01-30T01:10:16.296Z,28.30
2023-01-30T01:12:48.612Z,30.23
2023-01-30T01:15:17.510Z,29.85
2023-01-30T01:17:46.104Z,31.17
2023-01-30T01:20:14.905Z,31.33
2023-01-30T01:22:43.394Z,35.97
2023-01-30T01:25:12.848Z,32.72
2023-01-30T01:27:41.454Z,33.13
2023-01-30T01:30:14.942Z,32.22
2023-01-30T01:32:45.425Z,29.30
2023-01-30T01:35:13.818Z,31.13
2023-01-30T01:37:47.114Z,32.85
2023-01-30T01:40:39.241Z,27.73
2023-01-30T01:43:19.815Z,30.98
2023-01-30T01:45:54.308Z,35.50
2023-01-30T01:48:28.762Z,32.03
2023-01-30T01:51:01.949Z,29.20
2023-01-30T01:53:35.138Z,33.72
2023-01-30T01:56:05.184Z,29.73
2023-01-30T01:58:39.309Z,29.08
2023-01-30T02:01:11.851Z,30.70
2023-01-30T02:03:46.463Z,30.40
2023-01-30T02:06:18.387Z,27.65
2023-01-30T02:08:51.303Z,27.70
2023-01-30T02:11:30.238Z,29.17
2023-01-30T02:14:01.402Z,32.78
2023-01-30T02:16:31.297Z,28.33
2023-01-30T02:18:59.877Z,27.65
2023-01-30T02:22:03.881Z,32.05
2023-01-30T02:25:11.420Z,32.90
2023-01-30T02:28:13.361Z,30.45
2023-01-30T02:31:15.717Z,29.70
2023-01-30T02:33:56.808Z,29.70
2023-01-30T02:36:32.697Z,29.63
2023-01-30T02:39:09.583Z,30.17
2023-01-30T02:41:46.214Z,29.73
2023-01-30T02:44:22.998Z,27.98
2023-01-30T02:46:57.572Z,28.88
2023-01-30T02:49:32.831Z,26.95
2023-01-30T02:52:03.344Z,30.45
2023-01-30T02:54:33.492Z,37.40
2023-01-30T02:57:02.219Z,32.67
2023-01-30T02:59:38.400Z,31.80
2023-01-30T03:02:25.760Z,32.58
2023-01-30T03:05:09.309Z,29.23
2023-01-30T03:07:46.974Z,30.30
2023-01-30T03:10:25.597Z,33.72
2023-01-30T03:13:04.604Z,27.30
2023-01-30T03:15:36.569Z,28.92
2023-01-30T03:18:06.751Z,31.13
2023-01-30T03:20:38.312Z,26.50
2023-01-30T03:23:07.710Z,26.23
2023-01-30T03:25:39.322Z,28.90
2023-01-30T03:28:09.260Z,27.92
2023-01-30T03:30:38.528Z,35.05
2023-01-30T03:33:14.755Z,31.50
2023-01-30T03:35:48.580Z,32.10
2023-01-30T03:38:18.327Z,27.48
2023-01-30T03:40:53.277Z,29.83
2023-01-30T03:43:22.057Z,35.85
2023-01-30T03:45:50.529Z,29.80
2023-01-30T03:48:22.562Z,30.77
2023-01-30T03:50:50.859Z,28.17
2023-01-30T03:53:21.897Z,30.77
2023-01-30T03:55:50.690Z,28.23
2023-01-30T03:58:24.195Z,33.15
2023-01-30T04:00:52.797Z,30.38
2023-01-30T04:03:22.600Z,29.70
2023-01-30T04:05:52.356Z,28.08
2023-01-30T04:08:22.015Z,26.27
2023-01-30T04:10:50.410Z,30.02
2023-01-30T04:13:19.306Z,28.95
2023-01-30T04:15:48.359Z,29.42
2023-01-30T04:18:38.437Z,27.88
2023-01-30T04:21:22.337Z,22.50
2023-01-30T04:23:52.512Z,30.40
2023-01-30T04:26:21.001Z,31.80
2023-01-30T04:28:49.687Z,31.67
2023-01-30T04:31:18.339Z,31.55
2023-01-30T04:34:08.451Z,29.38
2023-01-30T04:36:37.735Z,31.55
2023-01-30T04:39:06.238Z,31.10
2023-01-30T04:41:35.527Z,30.77
2023-01-30T04:44:04.640Z,28.58
2023-01-30T04:46:55.737Z,28.92
2023-01-30T04:49:25.551Z,29.60
2023-01-30T04:51:55.340Z,31.25
2023-01-30T04:54:24.160Z,29.77
2023-01-30T04:56:52.560Z,28.67
2023-01-30T04:59:21.103Z,26.88
2023-01-30T05:01:53.407Z,32.67
2023-01-30T05:04:22.052Z,28.30
2023-01-30T05:06:51.754Z,33.03
2023-01-30T05:09:20.137Z,31.45
2023-01-30T05:11:50.925Z,30.13
2023-01-30T05:14:19.272Z,30.90
2023-01-30T05:16:50.899Z,27.35
2023-01-30T05:19:19.407Z,28.27
2023-01-30T05:21:47.752Z,28.83
2023-01-30T05:24:17.469Z,29.85
2023-01-30T05:26:45.838Z,29.25
2023-01-30T05:29:16.461Z,28.27
2023-01-30T05:31:44.982Z,28.75
2023-01-30T05:34:16.112Z,25.00
2023-01-30T05:36:44.488Z,28.33
2023-01-30T05:39:12.849Z,29.08
2023-01-30T05:41:44.891Z,27.13
2023-01-30T05:44:13.394Z,29.23
2023-01-30T05:46:44.719Z,28.05
2023-01-30T05:49:13.198Z,26.60
2023-01-30T05:51:44.401Z,26.88
2023-01-30T05:54:12.797Z,26.05
2023-01-30T05:56:45.767Z,27.15
2023-01-30T05:59:15.341Z,25.48
2023-01-30T06:01:43.673Z,25.88
2023-01-30T06:04:12.083Z,27.15
2023-01-30T06:06:40.449Z,25.27
2023-01-30T06:09:11.401Z,23.88
2023-01-30T06:11:39.794Z,26.00
2023-01-30T06:14:09.764Z,23.50
2023-01-30T06:16:38.536Z,24.67
2023-01-30T06:19:06.905Z,23.92
2023-01-30T06:21:35.244Z,27.25
2023-01-30T06:24:03.627Z,22.92
2023-01-30T06:26:32.124Z,23.80
2023-01-30T06:29:00.522Z,24.65
2023-01-30T06:31:30.281Z,26.50
2023-01-30T06:33:58.680Z,25.55
2023-01-30T06:36:27.068Z,22.83
2023-01-30T06:38:55.379Z,24.27
2023-01-30T06:41:23.767Z,22.60
2023-01-30T06:43:52.137Z,22.77
2023-01-30T06:46:20.446Z,21.63
2023-01-30T06:48:50.237Z,22.02
2023-01-30T06:51:18.760Z,23.40
2023-01-30T06:53:47.442Z,25.48
2023-01-30T06:56:15.811Z,25.50
2023-01-30T06:58:44.412Z,25.38
2023-01-30T07:01:14.841Z,25.60
2023-01-30T07:03:43.259Z,25.23
2023-01-30T07:06:13.051Z,24.77
2023-01-30T07:08:41.945Z,30.20
2023-01-30T07:11:10.436Z,24.08
2023-01-30T07:13:38.924Z,19.08
2023-01-30T07:16:08.195Z,21.88
2023-01-30T07:18:36.701Z,21.75
2023-01-30T07:21:05.454Z,25.23
2023-01-30T07:23:37.450Z,20.75
2023-01-30T07:26:10.789Z,24.20
2023-01-30T07:28:40.941Z,23.27
2023-01-30T07:31:10.360Z,19.80
2023-01-30T07:33:39.393Z,24.63
2023-01-30T07:36:11.650Z,26.95
2023-01-30T07:38:41.721Z,24.65
2023-01-30T07:41:10.233Z,23.30
2023-01-30T07:43:42.542Z,27.70
2023-01-30T07:46:11.615Z,24.77
2023-01-30T07:48:40.008Z,26.30
2023-01-30T07:51:11.389Z,27.90
2023-01-30T07:53:41.904Z,30.95
2023-01-30T07:56:14.123Z,28.10
2023-01-30T07:58:44.989Z,27.52
2023-01-30T08:01:14.173Z,27.13
2023-01-30T08:03:43.925Z,23.95
2023-01-30T08:06:13.933Z,24.50
2023-01-30T08:08:44.452Z,21.85
2023-01-30T08:11:16.734Z,22.27
2023-01-30T08:13:45.486Z,21.88
2023-01-30T08:16:14.684Z,24.00
2023-01-30T08:18:44.168Z,20.23
2023-01-30T08:21:13.123Z,22.48
2023-01-30T08:23:43.412Z,19.27
2023-01-30T08:26:12.107Z,20.90
2023-01-30T08:28:41.651Z,21.02
2023-01-30T08:31:13.828Z,21.30
2023-01-30T08:33:43.183Z,22.45
2023-01-30T08:36:11.831Z,19.48
2023-01-30T08:38:40.574Z,22.77
2023-01-30T08:41:10.866Z,18.25
2023-01-30T08:43:40.104Z,21.85
2023-01-30T08:46:10.543Z,35.33
2023-01-30T08:48:49.624Z,25.67
2023-01-30T08:51:19.762Z,22.65
2023-01-30T08:53:52.613Z,21.05
2023-01-30T08:56:23.208Z,21.60
2023-01-30T08:58:54.135Z,22.38
2023-01-30T09:01:23.212Z,21.77
2023-01-30T09:03:54.395Z,22.63
2023-01-30T09:06:26.033Z,19.38
2023-01-30T09:08:55.073Z,21.00
2023-01-30T09:11:25.175Z,17.58
2023-01-30T09:13:58.040Z,16.88
2023-01-30T09:16:26.695Z,16.08
2023-01-30T09:18:55.752Z,16.45
2023-01-30T09:21:35.782Z,13.73
2023-01-30T09:24:06.959Z,16.65
2023-01-30T09:26:44.795Z,14.00
2023-01-30T09:29:14.219Z,13.90
2023-01-30T09:31:43.107Z,15.35
2023-01-30T09:34:14.232Z,9.68
2023-01-30T09:36:43.363Z,12.35
2023-01-30T09:39:13.772Z,11.90
2023-01-30T09:42:00.881Z,12.60
2023-01-30T09:44:49.811Z,12.55
2023-01-30T09:47:29.808Z,12.10
2023-01-30T09:50:15.219Z,9.70
2023-01-30T09:52:58.628Z,11.90
2023-01-30T09:55:30.259Z,17.02
2023-01-30T09:58:04.442Z,13.13
2023-01-30T10:00:36.784Z,12.63
2023-01-30T10:03:15.010Z,15.75
2023-01-30T10:05:48.229Z,8.35
2023-01-30T10:08:35.804Z,8.63
2023-01-30T10:11:15.700Z,12.60
2023-01-30T10:14:20.001Z,12.30
2023-01-30T10:17:01.605Z,10.32
2023-01-30T10:20:00.416Z,10.10
2023-01-30T10:22:43.083Z,12.38
2023-01-30T10:25:25.692Z,13.07
2023-01-30T10:28:00.488Z,11.45
2023-01-30T10:30:31.675Z,14.68
2023-01-30T10:33:05.652Z,18.23
2023-01-30T10:35:38.387Z,12.65
2023-01-30T10:38:19.205Z,9.10
2023-01-30T10:40:56.692Z,10.68
2023-01-30T10:43:30.321Z,13.57
2023-01-30T10:46:09.155Z,9.98
2023-01-30T10:48:54.033Z,14.20
2023-01-30T10:51:34.019Z,10.93
2023-01-30T10:54:10.935Z,10.93
2023-01-30T10:56:51.978Z,11.82
2023-01-30T10:59:29.551Z,13.60
2023-01-30T11:02:24.795Z,9.13
2023-01-30T11:04:59.517Z,10.93
2023-01-30T11:10:00.691Z,10.15
2023-01-30T11:12:30.048Z,15.80
2023-01-30T11:15:00.560Z,13.50
2023-01-30T11:17:37.117Z,16.83
2023-01-30T11:20:15.190Z,16.40
2023-01-30T11:22:52.069Z,13.38
2023-01-30T11:25:24.253Z,13.68
2023-01-30T11:27:58.149Z,12.15
2023-01-30T11:30:34.900Z,7.43
2023-01-30T11:33:13.934Z,13.05
2023-01-30T11:35:53.240Z,17.15
2023-01-30T11:38:28.221Z,12.10
2023-01-30T11:41:16.259Z,10.88
2023-01-30T11:43:45.288Z,10.88
2023-01-30T11:46:19.611Z,16.88
2023-01-30T11:49:04.312Z,13.23
2023-01-30T11:51:49.236Z,12.55
2023-01-30T11:54:22.945Z,10.25
2023-01-30T11:57:00.250Z,8.80
2023-01-30T11:59:32.455Z,12.60
2023-01-30T12:02:09.759Z,7.55
2023-01-30T12:04:45.834Z,11.18
2023-01-30T12:07:23.047Z,9.35
2023-01-30T12:09:54.619Z,8.68
2023-01-30T12:12:35.036Z,8.30
2023-01-30T12:15:27.233Z,8.80
2023-01-30T12:18:05.059Z,8.32
2023-01-30T12:20:49.537Z,11.90
2023-01-30T12:23:25.389Z,11.85
2023-01-30T12:26:04.709Z,7.68
2023-01-30T12:28:42.957Z,10.07
2023-01-30T12:31:30.616Z,11.93
2023-01-30T12:34:05.668Z,10.55
2023-01-30T12:36:48.941Z,6.75
2023-01-30T12:39:37.809Z,10.43
2023-01-30T12:42:48.074Z,10.25
2023-01-30T12:45:24.944Z,11.40
2023-01-30T12:48:24.526Z,9.48
2023-01-30T12:51:10.171Z,11.35
2023-01-30T12:53:59.235Z,11.10
2023-01-30T12:57:08.877Z,9.02
2023-01-30T12:59:50.761Z,12.38
2023-01-30T13:02:39.247Z,10.57
2023-01-30T13:05:28.306Z,8.18
2023-01-30T13:08:11.884Z,12.23
2023-01-30T13:10:53.278Z,6.88
2023-01-30T13:13:30.957Z,10.38
2023-01-30T13:16:11.696Z,7.72
2023-01-30T13:18:54.218Z,8.23
2023-01-30T13:21:31.447Z,12.48
2023-01-30T13:24:25.386Z,9.77
2023-01-30T13:27:04.042Z,8.95
2023-01-30T13:29:39.669Z,11.68
2023-01-30T13:32:24.104Z,11.32
2023-01-30T13:35:03.596Z,9.73
2023-01-30T13:37:35.848Z,10.38
2023-01-30T13:40:20.488Z,8.50
2023-01-30T13:43:07.835Z,8.18
2023-01-30T13:45:45.543Z,11.77
2023-01-30T13:51:18.690Z,11.63
2023-01-30T13:53:56.881Z,11.10
2023-01-30T13:56:43.105Z,13.88
2023-01-30T13:59:24.357Z,10.63
2023-01-30T14:02:25.850Z,12.40
2023-01-30T14:05:00.459Z,9.98
2023-01-30T14:07:35.370Z,11.18
2023-01-30T14:10:23.819Z,7.47
2023-01-30T14:13:07.536Z,11.52
2023-01-30T14:16:03.545Z,13.63
2023-01-30T14:18:39.003Z,15.93
2023-01-30T14:21:21.698Z,12.10
2023-01-30T14:23:57.767Z,8.52
2023-01-30T14:27:02.837Z,8.73
2023-01-30T14:32:56.129Z,7.20
2023-01-30T14:35:29.790Z,12.25
2023-01-30T14:38:17.388Z,14.27
2023-01-30T14:41:25.256Z,8.30
2023-01-30T14:43:56.235Z,10.88
2023-01-30T14:46:55.809Z,15.05
2023-01-30T14:49:36.955Z,12.43
2023-01-30T14:52:33.895Z,17.25
2023-01-30T14:55:08.917Z,10.98
2023-01-30T14:57:38.427Z,9.80
2023-01-30T15:00:19.993Z,9.63
2023-01-30T15:02:57.666Z,14.05
2023-01-30T15:05:34.375Z,9.52
2023-01-30T15:08:28.576Z,12.00
2023-01-30T15:11:12.859Z,11.97
2023-01-30T15:13:55.312Z,14.00
2023-01-30T15:16:46.167Z,15.20
2023-01-30T15:19:38.915Z,8.85
2023-01-30T15:22:25.127Z,13.02
2023-01-30T15:25:32.601Z,11.32
2023-01-30T15:28:19.184Z,11.07
2023-01-30T15:31:01.010Z,16.27
2023-01-30T15:33:33.272Z,12.02
2023-01-30T15:36:20.131Z,12.57
2023-01-30T15:38:59.096Z,12.07
2023-01-30T15:41:44.281Z,10.13
2023-01-30T15:44:46.667Z,11.80
2023-01-30T15:47:46.971Z,11.15
2023-01-30T15:50:23.465Z,12.73
2023-01-30T15:52:57.036Z,8.88
2023-01-30T15:55:40.943Z,12.80
2023-01-30T15:58:24.675Z,9.52
2023-01-30T16:00:58.127Z,10.07
2023-01-30T16:03:33.688Z,7.33
2023-01-30T16:06:10.329Z,14.27
2023-01-30T16:08:47.226Z,11.18
2023-01-30T16:11:40.436Z,12.35
2023-01-30T16:14:15.480Z,10.77
2023-01-30T16:16:50.855Z,9.00
2023-01-30T16:19:28.975Z,12.93
2023-01-30T16:22:02.092Z,12.70
2023-01-30T16:24:37.114Z,10.95
2023-01-30T16:27:09.744Z,10.07
2023-01-30T16:29:53.440Z,12.15
2023-01-30T16:32:29.828Z,9.93
2023-01-30T16:35:29.262Z,7.45
2023-01-30T16:38:32.397Z,7.20
2023-01-30T16:41:06.186Z,5.95
2023-01-30T16:43:36.566Z,11.68
2023-01-30T16:46:39.495Z,11.95
2023-01-30T16:49:18.458Z,8.38
2023-01-30T16:51:48.841Z,7.68
2023-01-30T16:54:23.116Z,11.55
2023-01-30T16:56:56.816Z,11.03
2023-01-30T16:59:32.304Z,14.83
2023-01-30T17:02:04.955Z,9.98
2023-01-30T17:04:55.295Z,7.70
2023-01-30T17:07:36.553Z,9.98
2023-01-30T17:10:32.244Z,16.23
2023-01-30T17:13:04.655Z,51.30
2023-01-30T17:15:39.509Z,24.17
2023-01-30T17:18:13.196Z,16.73
2023-01-30T17:20:51.280Z,13.23
2023-01-30T17:23:22.311Z,16.05
2023-01-30T17:25:56.906Z,12.27
2023-01-30T17:28:29.181Z,12.73
2023-01-30T17:31:14.787Z,11.75
2023-01-30T17:33:53.492Z,9.05
2023-01-30T17:36:36.073Z,10.15
2023-01-30T17:39:18.837Z,12.95
2023-01-30T17:41:55.197Z,11.18
2023-01-30T17:44:28.410Z,12.20
2023-01-30T17:47:06.546Z,9.52
2023-01-30T17:49:38.347Z,11.88
2023-01-30T17:52:16.362Z,13.98
2023-01-30T17:54:51.591Z,11.43
2023-01-30T17:57:27.703Z,9.23
2023-01-30T17:59:56.831Z,12.05
2023-01-30T18:02:28.400Z,9.93
2023-01-30T18:05:01.266Z,8.55
2023-01-30T18:07:39.315Z,8.30
2023-01-30T18:10:18.466Z,13.30
2023-01-30T18:12:53.566Z,11.32
2023-01-30T18:15:31.631Z,12.18
2023-01-30T18:18:17.878Z,11.40
2023-01-30T18:20:55.391Z,10.95
2023-01-30T18:23:56.614Z,8.80
2023-01-30T18:26:30.851Z,14.13
2023-01-30T18:29:07.116Z,12.20
2023-01-30T18:31:46.630Z,12.70
2023-01-30T18:34:21.908Z,8.18
2023-01-30T18:37:00.251Z,8.60
2023-01-30T18:39:48.461Z,10.48
2023-01-30T18:42:27.020Z,10.40
2023-01-30T18:45:13.748Z,12.98
2023-01-30T18:47:44.811Z,12.88
2023-01-30T18:50:20.891Z,12.35
2023-01-30T18:52:56.374Z,9.45
2023-01-30T18:55:30.941Z,10.95
2023-01-30T19:00:34.014Z,14.27
2023-01-30T19:03:05.418Z,11.70
2023-01-30T19:05:43.357Z,9.25
2023-01-30T19:08:12.662Z,12.88
2023-01-30T19:10:47.264Z,10.20
2023-01-30T19:13:36.847Z,13.50
2023-01-30T19:16:10.899Z,11.00
2023-01-30T19:18:40.731Z,11.77
2023-01-30T19:21:16.324Z,12.52
2023-01-30T19:23:47.499Z,11.38
2023-01-30T19:26:23.481Z,9.18
2023-01-30T19:28:56.660Z,10.18
2023-01-30T19:31:26.714Z,11.90
2023-01-30T19:34:01.021Z,7.80
2023-01-30T19:36:38.818Z,12.18
2023-01-30T19:39:08.028Z,8.52
2023-01-30T19:41:38.973Z,11.23
2023-01-30T19:44:09.859Z,9.98
2023-01-30T19:46:46.365Z,12.93
2023-01-30T19:49:16.593Z,9.88
2023-01-30T19:51:46.844Z,9.45
2023-01-30T19:54:28.914Z,9.15
2023-01-30T19:57:00.197Z,6.93
2023-01-30T19:59:30.286Z,7.68
2023-01-30T20:02:00.180Z,6.40
2023-01-30T20:04:29.493Z,11.18
2023-01-30T20:07:02.068Z,8.13
2023-01-30T20:09:36.591Z,9.95
2023-01-30T20:12:11.143Z,8.73
2023-01-30T20:14:42.449Z,6.07
2023-01-30T20:17:16.582Z,10.00
2023-01-30T20:19:52.493Z,9.77
2023-01-30T20:22:29.010Z,9.38
2023-01-30T20:25:01.043Z,7.30
2023-01-30T20:27:35.596Z,9.25
2023-01-30T20:30:06.157Z,12.35
2023-01-30T20:32:41.140Z,11.60
2023-01-30T20:35:14.200Z,11.18
2023-01-30T20:37:44.925Z,8.82
2023-01-30T20:40:15.768Z,8.23
2023-01-30T20:42:46.598Z,6.45
2023-01-30T20:45:16.689Z,6.68
2023-01-30T20:47:52.007Z,9.43
2023-01-30T20:50:22.005Z,7.85
2023-01-30T20:52:52.801Z,8.65
2023-01-30T20:55:22.831Z,8.60
2023-01-30T20:57:54.081Z,6.28
2023-01-30T21:00:22.958Z,7.28
2023-01-30T21:02:59.369Z,9.15
2023-01-30T21:05:35.719Z,7.38
2023-01-30T21:08:13.135Z,9.35
2023-01-30T21:10:47.213Z,7.72
2023-01-30T21:13:17.856Z,9.60
2023-01-30T21:15:47.093Z,7.78
2023-01-30T21:18:17.969Z,5.45
2023-01-30T21:20:54.112Z,11.10
2023-01-30T21:23:25.000Z,9.68
2023-01-30T21:25:55.015Z,11.43
2023-01-30T21:28:26.355Z,10.18
2023-01-30T21:30:56.129Z,6.68
2023-01-30T21:33:25.871Z,9.02
2023-01-30T21:35:55.834Z,4.88
2023-01-30T21:38:42.798Z,5.72
2023-01-30T21:41:36.625Z,4.53
2023-01-30T21:44:09.062Z,5.30
2023-01-30T21:46:40.467Z,6.65
2023-01-30T21:49:12.747Z,8.63
2023-01-30T21:51:43.800Z,7.53
2023-01-30T21:54:14.651Z,7.78
2023-01-30T21:56:44.354Z,7.90
2023-01-30T21:59:19.350Z,6.95
2023-01-30T22:01:54.109Z,5.18
2023-01-30T22:04:27.104Z,6.95
2023-01-30T22:07:00.182Z,6.85
2023-01-30T22:09:30.539Z,5.45
2023-01-30T22:12:05.847Z,7.10
2023-01-30T22:14:37.580Z,7.53
2023-01-30T22:17:07.559Z,5.32
2023-01-30T22:19:40.779Z,6.15
2023-01-30T22:22:13.690Z,5.72
2023-01-30T22:24:43.389Z,6.47
2023-01-30T22:27:13.932Z,11.10
2023-01-30T22:29:48.059Z,3.78
2023-01-30T22:32:22.277Z,5.82
2023-01-30T22:34:55.551Z,6.50
2023-01-30T22:37:28.666Z,5.25
2023-01-30T22:40:01.619Z,4.68
2023-01-30T22:42:31.513Z,4.38
2023-01-30T22:45:03.258Z,5.05
2023-01-30T22:47:37.087Z,8.00
2023-01-30T22:50:08.679Z,8.70
2023-01-30T22:52:46.935Z,6.05
2023-01-30T22:55:18.062Z,5.57
2023-01-30T22:57:51.600Z,6.03
2023-01-30T23:00:34.033Z,5.55
2023-01-30T23:03:04.427Z,6.20
2023-01-30T23:05:34.306Z,7.22
2023-01-30T23:08:03.466Z,5.95
2023-01-30T23:10:33.711Z,13.52
2023-01-30T23:13:09.887Z,12.77
2023-01-30T23:15:43.959Z,7.75
2023-01-30T23:18:37.998Z,7.78
2023-01-30T23:21:12.118Z,5.47
2023-01-30T23:23:41.879Z,7.45
2023-01-30T23:26:41.218Z,9.40
2023-01-30T23:29:21.040Z,8.25
2023-01-30T23:31:51.152Z,10.82
2023-01-30T23:34:23.018Z,11.82
2023-01-30T23:36:55.867Z,9.40
2023-01-30T23:39:26.545Z,8.27
2023-01-30T23:41:59.828Z,7.93
2023-01-30T23:44:36.334Z,7.85
2023-01-30T23:47:09.840Z,7.32
2023-01-30T23:49:38.715Z,6.50
2023-01-30T23:52:10.932Z,6.72
2023-01-30T23:54:40.824Z,8.52
2023-01-30T23:57:13.787Z,8.25
2023-01-30T23:59:46.923Z,5.57
